Tonyrefail, United Kingdom
Current Conditions -  °F | °C
As of 9:50 AM on Saturday 25 Oct 2014 (Local Time) from EGDX Reporting Station
Rain Showers Rain Showers  
Wind Chill: 54°   Ceiling: 2300
Heat Index: 54°   Visibility: 4mi
Dew Point: 50°   Wind: 16mph
Humidity: 88%   Direction: 240°WSW
Pressure: 30.03"   Gusts: NA
Location:  51.58°N, 3.43°W
Report Text: EGDX 250850Z 24014KT 6000 VCSH SCT012 BKN023 12/10 Q1017 GRN
Loading
Personal Weather Stations






























Interactive Weather Map
Tropical Storm Tracking
New forecast layout! Learn more

10-Day Weather Forecast

Advertisements
Track Severe Weather on mobile